Terminal Aerodrome Forecast
Issued by NWS Louisville, KY

Home | Current Version | Previous Version | Text Only | Print | Product List | Glossary Off
Versions: 1 2 3 4 5 6 7 8 9 10 11 12 13 14 15 16 17 18 19 20 21 22 23

000
FTUS43 KLMK 040500
TAFLEX
TAF
KLEX 040535Z 0406/0506 VRB03KT 3SM BR BKN005
      TEMPO 0406/0410 1 1/2SM BR BKN002
     FM041200 VRB04KT 4SM BR BKN008
     FM041300 VRB04KT 5SM BR BKN025
     FM041500 26005KT P6SM BKN040=

USA.gov is the U.S. government's official web portal to all federal, state and local government web resources and services.